Time;durP1;ratioP1;P1;durP2;ratioP2;P2;SDS_P1;SDS_P2;PMS_P1;PMS_P2;Temp;Humidity;BMP_temperature;BMP_pressure;BME280_temperature;BME280_humidity;BME280_pressure;Samples;Min_cycle;Max_cycle;Signal;HPM_P1;HPM_P2
2022/06/08 00:00:15;;;;;;;0.10;0.10;;;;;;;;;;4904256;29;20131;-91
2022/06/08 00:02:41;;;;;;;0.10;0.10;;;;;;;;;;4903969;29;20043;-91
2022/06/08 00:05:07;;;;;;;0.10;0.10;;;;;;;;;;4904097;29;20114;-92
2022/06/08 00:07:33;;;;;;;0.10;0.10;;;;;;;;;;4903461;29;20099;-92
2022/06/08 00:09:59;;;;;;;0.10;0.10;;;;;;;;;;4919767;29;20040;-91
2022/06/08 00:12:25;;;;;;;0.10;0.10;;;;;;;;;;4903960;29;20086;-91
2022/06/08 00:14:51;;;;;;;0.10;0.10;;;;;;;;;;4904079;29;20086;-91
2022/06/08 00:17:18;;;;;;;0.10;0.10;;;;;;;;;;4903719;29;20086;-90
2022/06/08 00:19:44;;;;;;;0.10;0.10;;;;;;;;;;4903799;29;20043;-90
2022/06/08 00:22:11;;;;;;;0.10;0.10;;;;;;;;;;4904002;29;20043;-92
2022/06/08 00:24:37;;;;;;;0.10;0.10;;;;;;;;;;4904067;29;20448;-92
2022/06/08 00:27:03;;;;;;;0.10;0.10;;;;;;;;;;4903710;29;20044;-91
2022/06/08 00:29:29;;;;;;;0.20;0.20;;;;;;;;;;4919441;29;20046;-92
2022/06/08 00:31:55;;;;;;;0.10;0.10;;;;;;;;;;4903621;29;20043;-91
2022/06/08 00:34:21;;;;;;;0.10;0.10;;;;;;;;;;4919281;29;20043;-92
2022/06/08 00:36:47;;;;;;;0.10;0.10;;;;;;;;;;4903605;29;20099;-92
2022/06/08 00:39:13;;;;;;;0.10;0.10;;;;;;;;;;4903397;29;20039;-91
2022/06/08 00:41:39;;;;;;;0.10;0.10;;;;;;;;;;4903670;29;20058;-92
2022/06/08 00:44:07;;;;;;;0.10;0.10;;;;;;;;;;4934796;29;20050;-92
2022/06/08 00:46:33;;;;;;;0.10;0.10;;;;;;;;;;4903464;29;20077;-93
2022/06/08 00:49:00;;;;;;;0.10;0.10;;;;;;;;;;4903500;29;20047;-92
2022/06/08 00:51:26;;;;;;;0.10;0.10;;;;;;;;;;4903434;29;20078;-92
2022/06/08 00:53:54;;;;;;;0.10;0.10;;;;;;;;;;4903165;29;20040;-92
2022/06/08 00:56:22;;;;;;;0.10;0.10;;;;;;;;;;4919000;29;20502;-92
2022/06/08 00:58:48;;;;;;;0.10;0.10;;;;;;;;;;4918699;29;20051;-94
2022/06/08 01:01:14;;;;;;;0.10;0.10;;;;;;;;;;4919128;29;20048;-92
2022/06/08 01:03:40;;;;;;;0.10;0.10;;;;;;;;;;4903548;29;20443;-92
2022/06/08 01:06:14;;;;;;;0.10;0.10;;;;;;;;;;4903082;29;20055;-92
2022/06/08 01:08:46;;;;;;;0.10;0.10;;;;;;;;;;4903839;29;20050;-92
2022/06/08 01:11:13;;;;;;;0.10;0.10;;;;;;;;;;4934777;29;20043;-93
2022/06/08 01:13:39;;;;;;;0.10;0.10;;;;;;;;;;4903427;29;20039;-93
2022/06/08 01:16:06;;;;;;;0.10;0.10;;;;;;;;;;4890414;29;20135;-92
2022/06/08 01:18:32;;;;;;;0.10;0.10;;;;;;;;;;4886316;29;20050;-92
2022/06/08 01:21:16;;;;;;;0.10;0.10;;;;;;;;;;4903110;29;20043;-96
2022/06/08 01:23:42;;;;;;;0.10;0.10;;;;;;;;;;4903058;29;20043;-95
2022/06/08 01:26:13;;;;;;;0.10;0.10;;;;;;;;;;4933272;29;20067;-95
2022/06/08 01:28:51;;;;;;;0.10;0.10;;;;;;;;;;4903318;29;20134;-95
2022/06/08 01:31:49;;;;;;;0.10;0.10;;;;;;;;;;4910559;29;20126;-95
2022/06/08 01:34:18;;;;;;;0.10;0.10;;;;;;;;;;4867742;29;20090;-95
2022/06/08 01:36:47;;;;;;;0.10;0.10;;;;;;;;;;4903304;29;20040;-95
2022/06/08 01:39:13;;;;;;;0.10;0.10;;;;;;;;;;4903377;29;20044;-94
2022/06/08 01:41:48;;;;;;;0.10;0.10;;;;;;;;;;4902865;29;20095;-95
2022/06/08 01:44:29;;;;;;;0.10;0.10;;;;;;;;;;4902536;29;20055;-95
2022/06/08 01:46:56;;;;;;;0.10;0.10;;;;;;;;;;4918556;29;20059;-95
2022/06/08 01:49:25;;;;;;;0.10;0.10;;;;;;;;;;4902875;29;20044;-91
2022/06/08 01:52:07;;;;;;;0.10;0.10;;;;;;;;;;4906371;29;20035;-92
2022/06/08 01:54:39;;;;;;;0.10;0.10;;;;;;;;;;4917872;29;20040;-92
2022/06/08 01:57:16;;;;;;;0.10;0.10;;;;;;;;;;4918006;29;20051;-91
2022/06/08 02:00:14;;;;;;;0.10;0.10;;;;;;;;;;4902768;29;20068;-91
2022/06/08 02:03:00;;;;;;;0.10;0.10;;;;;;;;;;4852017;29;20059;-92
2022/06/08 02:05:29;;;;;;;0.10;0.10;;;;;;;;;;4902171;29;20054;-92
2022/06/08 02:08:14;;;;;;;0.10;0.10;;;;;;;;;;4902510;29;20563;-92
2022/06/08 02:10:43;;;;;;;0.10;0.10;;;;;;;;;;4902205;29;20048;-92
2022/06/08 02:13:23;;;;;;;0.10;0.10;;;;;;;;;;4902102;29;20174;-92
2022/06/08 02:15:49;;;;;;;0.10;0.10;;;;;;;;;;4918251;29;20054;-92
2022/06/08 02:18:20;;;;;;;0.10;0.10;;;;;;;;;;4918042;29;20464;-92
2022/06/08 02:20:48;;;;;;;0.10;0.10;;;;;;;;;;4918204;29;20047;-93
2022/06/08 02:23:24;;;;;;;0.10;0.10;;;;;;;;;;4918440;29;20107;-92
2022/06/08 02:25:51;;;;;;;0.10;0.10;;;;;;;;;;4902185;29;20044;-93
2022/06/08 02:28:21;;;;;;;0.10;0.10;;;;;;;;;;4917863;29;20052;-93
2022/06/08 02:30:54;;;;;;;0.10;0.10;;;;;;;;;;4919994;29;20099;-93
2022/06/08 02:36:14;;;;;;;0.10;0.10;;;;;;;;;;4908248;29;20043;-92
2022/06/08 02:38:41;;;;;;;0.10;0.10;;;;;;;;;;4905498;29;20130;-92
2022/06/08 02:41:07;;;;;;;0.10;0.10;;;;;;;;;;4921420;29;20472;-92
2022/06/08 02:43:38;;;;;;;0.10;0.10;;;;;;;;;;4921162;29;20046;-92
2022/06/08 02:46:07;;;;;;;0.10;0.10;;;;;;;;;;4921410;29;20062;-93
2022/06/08 02:48:33;;;;;;;0.10;0.10;;;;;;;;;;4890625;29;20039;-93
2022/06/08 02:50:59;;;;;;;0.10;0.10;;;;;;;;;;4905769;29;20117;-93
2022/06/08 02:53:31;;;;;;;0.10;0.10;;;;;;;;;;4905683;29;20051;-95
2022/06/08 02:56:04;;;;;;;0.10;0.10;;;;;;;;;;4905611;29;20135;-93
2022/06/08 02:58:39;;;;;;;0.10;0.10;;;;;;;;;;4906094;29;20043;-94
2022/06/08 03:01:09;;;;;;;0.10;0.10;;;;;;;;;;4921481;29;20047;-93
2022/06/08 03:03:47;;;;;;;0.10;0.10;;;;;;;;;;4905625;29;20085;-93
2022/06/08 03:06:15;;;;;;;0.10;0.10;;;;;;;;;;4922850;29;20039;-94
2022/06/08 03:08:43;;;;;;;0.20;0.20;;;;;;;;;;4921582;29;20047;-94
2022/06/08 03:11:09;;;;;;;0.10;0.10;;;;;;;;;;4905576;29;20126;-93
2022/06/08 03:13:38;;;;;;;0.10;0.10;;;;;;;;;;4905397;29;20054;-92
2022/06/08 03:16:05;;;;;;;0.20;0.20;;;;;;;;;;4920856;29;20040;-93
2022/06/08 03:18:31;;;;;;;0.10;0.10;;;;;;;;;;4905128;29;20043;-92
2022/06/08 03:20:58;;;;;;;0.10;0.10;;;;;;;;;;4921091;29;20123;-92
2022/06/08 03:23:23;;;;;;;0.10;0.10;;;;;;;;;;4921501;29;20499;-93
2022/06/08 03:25:50;;;;;;;0.10;0.10;;;;;;;;;;4921140;29;20130;-92
2022/06/08 03:28:16;;;;;;;0.10;0.10;;;;;;;;;;4905461;29;20039;-94
2022/06/08 03:30:42;;;;;;;0.10;0.10;;;;;;;;;;4921339;29;20399;-94
2022/06/08 03:33:09;;;;;;;0.10;0.10;;;;;;;;;;4905377;29;20039;-95
2022/06/08 03:35:36;;;;;;;0.10;0.10;;;;;;;;;;4905270;29;20423;-93
2022/06/08 03:38:03;;;;;;;0.10;0.10;;;;;;;;;;4920970;29;20075;-93
2022/06/08 03:40:29;;;;;;;0.10;0.10;;;;;;;;;;4904688;29;20043;-95
2022/06/08 03:42:55;;;;;;;0.10;0.10;;;;;;;;;;4903627;29;20047;-92
2022/06/08 03:45:21;;;;;;;0.10;0.10;;;;;;;;;;4920485;29;20066;-93
2022/06/08 03:47:48;;;;;;;0.10;0.10;;;;;;;;;;4920708;29;20286;-94
2022/06/08 03:50:15;;;;;;;0.10;0.10;;;;;;;;;;4920674;29;20040;-93
2022/06/08 03:52:43;;;;;;;0.10;0.10;;;;;;;;;;4904555;29;20062;-93
2022/06/08 03:55:09;;;;;;;0.30;0.30;;;;;;;;;;4920133;29;20093;-93
2022/06/08 03:57:35;;;;;;;0.10;0.10;;;;;;;;;;4919876;29;20050;-92
2022/06/08 04:00:02;;;;;;;0.20;0.20;;;;;;;;;;4919817;29;20047;-92
2022/06/08 04:02:28;;;;;;;0.10;0.10;;;;;;;;;;4903966;29;20075;-92
2022/06/08 04:04:54;;;;;;;0.10;0.10;;;;;;;;;;4919758;29;20051;-91
2022/06/08 04:07:20;;;;;;;0.10;0.10;;;;;;;;;;4904267;29;20040;-92
2022/06/08 04:09:46;;;;;;;0.10;0.10;;;;;;;;;;4904403;29;20043;-92
2022/06/08 04:12:12;;;;;;;0.10;0.10;;;;;;;;;;4904334;29;20372;-92
2022/06/08 04:14:38;;;;;;;0.20;0.20;;;;;;;;;;4903839;29;20044;-92
2022/06/08 04:17:07;;;;;;;0.10;0.10;;;;;;;;;;4919875;29;20039;-92
2022/06/08 04:19:33;;;;;;;0.10;0.10;;;;;;;;;;4919512;29;20042;-92
2022/06/08 04:21:59;;;;;;;0.10;0.10;;;;;;;;;;4919351;29;20075;-93
2022/06/08 04:24:26;;;;;;;0.38;0.38;;;;;;;;;;4903863;29;20090;-93
2022/06/08 04:26:56;;;;;;;0.10;0.10;;;;;;;;;;4904251;29;20049;-93
2022/06/08 04:29:22;;;;;;;0.10;0.10;;;;;;;;;;4919590;29;20078;-93
2022/06/08 04:31:48;;;;;;;0.10;0.10;;;;;;;;;;4903985;29;20043;-93
2022/06/08 04:34:14;;;;;;;0.10;0.10;;;;;;;;;;4903819;29;20052;-92
2022/06/08 04:36:40;;;;;;;0.10;0.10;;;;;;;;;;4919376;29;20047;-92
2022/06/08 04:39:07;;;;;;;0.20;0.20;;;;;;;;;;4919455;29;20464;-92
2022/06/08 04:41:33;;;;;;;0.10;0.10;;;;;;;;;;4919242;29;20050;-92
2022/06/08 04:43:59;;;;;;;0.10;0.10;;;;;;;;;;4918604;29;20056;-91
2022/06/08 04:46:25;;;;;;;0.10;0.10;;;;;;;;;;4919184;29;20052;-91
2022/06/08 04:48:51;;;;;;;0.10;0.10;;;;;;;;;;4903161;29;20279;-91
2022/06/08 04:51:17;;;;;;;0.10;0.10;;;;;;;;;;4919232;29;20409;-92
2022/06/08 04:53:43;;;;;;;0.10;0.10;;;;;;;;;;4918767;29;20044;-93
2022/06/08 04:56:09;;;;;;;0.10;0.10;;;;;;;;;;4919167;29;20039;-92
2022/06/08 04:58:35;;;;;;;0.10;0.10;;;;;;;;;;4919275;29;20087;-93
2022/06/08 05:01:01;;;;;;;0.10;0.10;;;;;;;;;;4903617;29;20050;-93
2022/06/08 05:03:30;;;;;;;0.10;0.10;;;;;;;;;;4919263;29;20156;-94
2022/06/08 05:05:56;;;;;;;0.10;0.10;;;;;;;;;;4919079;29;20046;-93
2022/06/08 05:08:23;;;;;;;0.10;0.10;;;;;;;;;;4919117;29;20043;-93
2022/06/08 05:10:50;;;;;;;0.10;0.10;;;;;;;;;;4919052;29;20040;-93
2022/06/08 05:13:16;;;;;;;0.20;0.20;;;;;;;;;;4920243;29;20040;-93
2022/06/08 05:15:45;;;;;;;0.10;0.10;;;;;;;;;;4904231;29;20090;-93
2022/06/08 05:18:11;;;;;;;0.10;0.10;;;;;;;;;;4919012;29;20399;-93
2022/06/08 05:20:40;;;;;;;0.85;0.35;;;;;;;;;;4919101;29;20051;-93
2022/06/08 05:23:07;;;;;;;0.20;0.20;;;;;;;;;;4918864;29;20388;-93
2022/06/08 05:25:34;;;;;;;0.10;0.10;;;;;;;;;;4918426;29;20075;-94
2022/06/08 05:28:00;;;;;;;0.10;0.10;;;;;;;;;;4918553;29;20203;-92
2022/06/08 05:30:26;;;;;;;0.10;0.10;;;;;;;;;;4918999;29;20090;-94
2022/06/08 05:32:52;;;;;;;0.10;0.10;;;;;;;;;;4918733;29;20111;-93
2022/06/08 05:35:19;;;;;;;0.10;0.10;;;;;;;;;;4902999;29;20147;-94
2022/06/08 05:37:48;;;;;;;0.10;0.10;;;;;;;;;;4902785;29;20129;-93
2022/06/08 05:40:19;;;;;;;0.10;0.10;;;;;;;;;;4918818;29;20074;-95
2022/06/08 05:42:45;;;;;;;0.10;0.10;;;;;;;;;;4902832;29;20151;-93
2022/06/08 05:45:16;;;;;;;0.10;0.10;;;;;;;;;;4918369;29;20139;-94
2022/06/08 05:47:43;;;;;;;0.10;0.10;;;;;;;;;;4918563;29;20050;-93
2022/06/08 05:50:10;;;;;;;0.20;0.20;;;;;;;;;;4903204;29;20126;-94
2022/06/08 05:52:37;;;;;;;0.10;0.10;;;;;;;;;;4918645;29;20069;-93
2022/06/08 05:55:03;;;;;;;0.10;0.10;;;;;;;;;;4918747;29;20048;-95
2022/06/08 05:57:29;;;;;;;0.10;0.10;;;;;;;;;;4918730;29;20044;-94
2022/06/08 05:59:55;;;;;;;0.10;0.10;;;;;;;;;;4918580;29;20522;-92
2022/06/08 06:02:21;;;;;;;0.10;0.10;;;;;;;;;;4917947;29;20231;-93
2022/06/08 06:04:47;;;;;;;0.10;0.10;;;;;;;;;;4918578;29;20145;-92
2022/06/08 06:07:13;;;;;;;0.10;0.10;;;;;;;;;;4921878;29;20526;-92
2022/06/08 06:09:39;;;;;;;0.22;0.22;;;;;;;;;;4906270;29;20143;-92
2022/06/08 06:12:05;;;;;;;0.10;0.10;;;;;;;;;;4906607;29;20039;-95
2022/06/08 06:14:32;;;;;;;0.10;0.10;;;;;;;;;;4925029;29;20392;-94
2022/06/08 06:16:58;;;;;;;0.10;0.10;;;;;;;;;;4921939;29;20134;-92
2022/06/08 06:19:24;;;;;;;0.10;0.10;;;;;;;;;;4921669;29;20054;-93
2022/06/08 06:21:53;;;;;;;0.10;0.10;;;;;;;;;;4906163;29;20040;-94
2022/06/08 06:24:19;;;;;;;0.20;0.20;;;;;;;;;;4906481;29;20120;-92
2022/06/08 06:26:45;;;;;;;0.10;0.10;;;;;;;;;;4921520;29;20467;-93
2022/06/08 06:29:14;;;;;;;0.10;0.10;;;;;;;;;;4923079;29;20040;-93
2022/06/08 06:31:49;;;;;;;0.15;0.15;;;;;;;;;;4920180;29;20036;-92
2022/06/08 06:34:16;;;;;;;0.10;0.10;;;;;;;;;;4890321;29;20174;-92
2022/06/08 06:36:42;;;;;;;0.20;0.20;;;;;;;;;;4889852;29;20054;-92
2022/06/08 06:39:08;;;;;;;0.50;0.50;;;;;;;;;;4921470;29;20138;-93
2022/06/08 06:41:34;;;;;;;0.20;0.20;;;;;;;;;;4921534;29;20378;-92
2022/06/08 06:44:00;;;;;;;0.10;0.10;;;;;;;;;;4905892;29;20051;-92
2022/06/08 06:46:26;;;;;;;0.10;0.10;;;;;;;;;;4929108;29;20047;-93
2022/06/08 06:48:52;;;;;;;0.20;0.20;;;;;;;;;;4905913;29;20501;-92
2022/06/08 06:51:18;;;;;;;0.30;0.30;;;;;;;;;;4921599;29;20095;-95
2022/06/08 06:53:44;;;;;;;0.10;0.10;;;;;;;;;;4921615;29;20044;-94
2022/06/08 06:56:10;;;;;;;0.10;0.10;;;;;;;;;;4936012;29;20051;-94
2022/06/08 06:58:38;;;;;;;0.10;0.10;;;;;;;;;;4905659;29;20039;-96
2022/06/08 07:01:06;;;;;;;0.10;0.10;;;;;;;;;;4906107;29;20047;-96
2022/06/08 07:03:32;;;;;;;0.10;0.10;;;;;;;;;;4905622;29;20079;-95
2022/06/08 07:05:58;;;;;;;0.10;0.10;;;;;;;;;;4905982;29;20051;-92
2022/06/08 07:08:24;;;;;;;0.20;0.20;;;;;;;;;;4921337;29;20090;-94
2022/06/08 07:13:42;;;;;;;0.60;0.20;;;;;;;;;;4895311;29;20098;-93
2022/06/08 07:16:08;;;;;;;0.28;0.28;;;;;;;;;;4904071;29;20051;-93
2022/06/08 07:18:34;;;;;;;0.20;0.20;;;;;;;;;;4920709;29;20043;-92
2022/06/08 07:21:00;;;;;;;0.10;0.10;;;;;;;;;;4905012;29;20400;-94
2022/06/08 07:23:26;;;;;;;0.30;0.30;;;;;;;;;;4920606;29;20130;-93
2022/06/08 07:25:52;;;;;;;0.10;0.10;;;;;;;;;;4920716;29;20035;-94
2022/06/08 07:28:18;;;;;;;0.10;0.10;;;;;;;;;;4905526;29;20359;-91
2022/06/08 07:30:44;;;;;;;0.10;0.10;;;;;;;;;;4904766;29;20043;-90
2022/06/08 07:33:10;;;;;;;0.10;0.10;;;;;;;;;;4920655;29;20036;-90
2022/06/08 07:35:36;;;;;;;0.40;0.40;;;;;;;;;;4904737;29;20043;-90
2022/06/08 07:38:03;;;;;;;0.47;0.45;;;;;;;;;;4920485;29;20040;-90
2022/06/08 07:40:29;;;;;;;0.10;0.10;;;;;;;;;;4904960;29;20043;-92
2022/06/08 07:42:55;;;;;;;0.22;0.22;;;;;;;;;;4904648;29;20042;-91
2022/06/08 07:45:21;;;;;;;0.10;0.10;;;;;;;;;;4920639;29;20063;-89
2022/06/08 07:50:42;;;;;;;0.20;0.20;;;;;;;;;;4926006;29;20071;-94
2022/06/08 07:53:14;;;;;;;0.20;0.20;;;;;;;;;;4910235;29;20052;-95
2022/06/08 07:55:43;;;;;;;;;;;;;;;;;;4913017;29;20090;-96
2022/06/08 07:58:09;;;;;;;0.10;0.10;;;;;;;;;;4932019;29;19919;-95
2022/06/08 08:00:36;;;;;;;0.20;0.20;;;;;;;;;;4916166;29;20058;-95
2022/06/08 08:03:02;;;;;;;0.10;0.10;;;;;;;;;;4881420;29;20055;-94
2022/06/08 08:05:28;;;;;;;0.10;0.10;;;;;;;;;;4890279;29;20077;-95
2022/06/08 08:08:04;;;;;;;0.10;0.10;;;;;;;;;;4878283;29;20048;-94
2022/06/08 08:10:30;;;;;;;0.20;0.20;;;;;;;;;;4889629;29;20039;-93
2022/06/08 08:12:59;;;;;;;0.85;0.65;;;;;;;;;;4891265;29;20146;-93
2022/06/08 08:15:29;;;;;;;0.10;0.10;;;;;;;;;;4891227;29;20111;-93
2022/06/08 08:17:55;;;;;;;0.10;0.10;;;;;;;;;;4884288;29;20084;-93
2022/06/08 08:20:21;;;;;;;0.20;0.20;;;;;;;;;;4869179;29;20044;-94
2022/06/08 08:22:47;;;;;;;0.10;0.10;;;;;;;;;;4869186;29;20059;-95
2022/06/08 08:25:16;;;;;;;0.10;0.10;;;;;;;;;;4868869;29;20087;-94
2022/06/08 08:27:42;;;;;;;0.10;0.10;;;;;;;;;;4868239;29;20083;-93
2022/06/08 08:30:10;;;;;;;0.10;0.10;;;;;;;;;;4901132;29;20091;-95
2022/06/08 08:32:36;;;;;;;0.10;0.10;;;;;;;;;;4904265;29;20044;-94
2022/06/08 08:35:02;;;;;;;0.10;0.10;;;;;;;;;;4903668;29;20079;-93
2022/06/08 08:37:28;;;;;;;0.90;0.30;;;;;;;;;;4903204;29;20054;-93
2022/06/08 08:39:54;;;;;;;0.10;0.10;;;;;;;;;;4919292;29;20381;-92
2022/06/08 08:42:20;;;;;;;0.20;0.20;;;;;;;;;;4903401;29;20051;-93
2022/06/08 08:44:50;;;;;;;0.20;0.20;;;;;;;;;;4903435;29;20059;-96
2022/06/08 08:47:20;;;;;;;0.10;0.10;;;;;;;;;;4905086;29;20062;-96
2022/06/08 08:50:13;;;;;;;0.10;0.10;;;;;;;;;;4920768;29;20044;-96
2022/06/08 08:52:59;;;;;;;0.10;0.10;;;;;;;;;;4931040;29;20048;-94
2022/06/08 08:55:34;;;;;;;0.10;0.10;;;;;;;;;;4919814;29;20446;-94
2022/06/08 08:58:00;;;;;;;0.10;0.10;;;;;;;;;;4920012;29;20059;-94
2022/06/08 09:00:32;;;;;;;0.22;0.22;;;;;;;;;;4922527;29;20043;-96
2022/06/08 09:03:17;;;;;;;;;;;;;;;;;;4920878;29;20054;-96
2022/06/08 09:05:48;;;;;;;0.10;0.10;;;;;;;;;;4919980;29;19918;-96
2022/06/08 09:08:15;;;;;;;0.10;0.10;;;;;;;;;;4904590;29;20043;-94
2022/06/08 09:11:09;;;;;;;0.20;0.20;;;;;;;;;;4908457;29;20130;-94
2022/06/08 09:13:37;;;;;;;0.20;0.20;;;;;;;;;;4920837;29;20098;-94
2022/06/08 09:16:05;;;;;;;0.20;0.20;;;;;;;;;;4907645;29;20054;-96
2022/06/08 09:18:35;;;;;;;0.20;0.20;;;;;;;;;;4912635;29;20044;-95
2022/06/08 09:21:24;;;;;;;0.20;0.20;;;;;;;;;;4906267;29;20052;-94
2022/06/08 09:23:55;;;;;;;0.20;0.20;;;;;;;;;;4929396;29;20090;-95
2022/06/08 09:26:24;;;;;;;0.10;0.10;;;;;;;;;;4904323;29;20047;-95
2022/06/08 09:32:03;;;;;;;0.10;0.10;;;;;;;;;;4938225;29;20052;-91
2022/06/08 09:34:29;;;;;;;0.20;0.20;;;;;;;;;;4904375;29;20035;-93
2022/06/08 09:37:05;;;;;;;0.10;0.10;;;;;;;;;;4903335;29;20046;-95
2022/06/08 09:39:31;;;;;;;0.20;0.20;;;;;;;;;;4918177;29;20130;-95
2022/06/08 09:41:59;;;;;;;0.17;0.17;;;;;;;;;;4903199;29;20121;-95
2022/06/08 09:44:33;;;;;;;0.30;0.20;;;;;;;;;;4903132;29;20058;-95
2022/06/08 09:52:53;;;;;;;0.20;0.20;;;;;;;;;;4921281;29;20050;-95
2022/06/08 09:55:29;;;;;;;0.20;0.20;;;;;;;;;;4919000;29;20079;-92
2022/06/08 09:58:01;;;;;;;0.20;0.20;;;;;;;;;;4903265;29;20108;-91
2022/06/08 10:00:27;;;;;;;0.10;0.10;;;;;;;;;;4902536;29;20066;-92
2022/06/08 10:03:23;;;;;;;0.10;0.10;;;;;;;;;;4918748;29;20048;-93
2022/06/08 10:05:49;;;;;;;0.30;0.30;;;;;;;;;;4906312;29;20044;-93
2022/06/08 10:08:20;;;;;;;0.20;0.20;;;;;;;;;;4918458;29;20047;-91
2022/06/08 10:10:58;;;;;;;0.20;0.20;;;;;;;;;;4902929;29;20051;-93
2022/06/08 10:13:29;;;;;;;0.20;0.20;;;;;;;;;;4918758;29;20048;-93
2022/06/08 10:16:00;;;;;;;0.20;0.20;;;;;;;;;;4902955;29;20047;-91
2022/06/08 10:18:46;;;;;;;0.10;0.10;;;;;;;;;;4902616;29;20481;-92
2022/06/08 10:21:13;;;;;;;0.10;0.10;;;;;;;;;;4918201;29;20047;-91
2022/06/08 10:23:59;;;;;;;0.10;0.10;;;;;;;;;;4902883;29;20114;-93
2022/06/08 10:26:28;;;;;;;0.20;0.20;;;;;;;;;;4902502;29;20459;-91
2022/06/08 10:29:11;;;;;;;0.20;0.20;;;;;;;;;;4934076;29;20035;-92
2022/06/08 10:31:48;;;;;;;0.10;0.10;;;;;;;;;;4902796;29;20044;-92
2022/06/08 10:34:18;;;;;;;0.10;0.10;;;;;;;;;;4902717;29;20043;-92
2022/06/08 10:36:47;;;;;;;0.20;0.20;;;;;;;;;;4902486;29;20098;-92
2022/06/08 10:39:13;;;;;;;0.20;0.20;;;;;;;;;;4902620;29;20044;-93
2022/06/08 10:44:38;;;;;;;0.20;0.20;;;;;;;;;;4920388;29;20059;-94
2022/06/08 10:47:08;;;;;;;0.20;0.20;;;;;;;;;;4902697;29;20047;-94
2022/06/08 10:49:34;;;;;;;0.20;0.20;;;;;;;;;;4902643;29;20539;-94
2022/06/08 10:52:26;;;;;;;0.20;0.20;;;;;;;;;;4920714;29;20139;-96
2022/06/08 10:54:56;;;;;;;;;;;;;;;;;;4900658;29;20055;-95
2022/06/08 10:57:37;;;;;;;0.10;0.10;;;;;;;;;;4921692;29;19965;-94
2022/06/08 11:00:22;;;;;;;0.20;0.20;;;;;;;;;;4921824;29;20480;-96
2022/06/08 11:03:01;;;;;;;0.10;0.10;;;;;;;;;;4921337;29;20057;-96
2022/06/08 11:05:30;;;;;;;0.20;0.20;;;;;;;;;;4937359;29;20404;-94
2022/06/08 11:08:04;;;;;;;0.10;0.10;;;;;;;;;;4921680;29;20051;-93
2022/06/08 11:10:51;;;;;;;0.10;0.10;;;;;;;;;;4921327;29;20099;-93
2022/06/08 11:13:24;;;;;;;0.10;0.10;;;;;;;;;;4937771;29;20055;-95
2022/06/08 11:15:53;;;;;;;0.10;0.10;;;;;;;;;;4921437;29;20103;-94
2022/06/08 11:18:24;;;;;;;0.20;0.20;;;;;;;;;;4921336;29;20050;-95
2022/06/08 11:21:20;;;;;;;0.20;0.20;;;;;;;;;;4921367;29;20051;-94
2022/06/08 11:23:50;;;;;;;0.10;0.10;;;;;;;;;;4871414;29;20068;-94
2022/06/08 11:26:20;;;;;;;0.20;0.20;;;;;;;;;;4905798;29;20044;-95
2022/06/08 11:28:48;;;;;;;0.20;0.20;;;;;;;;;;4921398;29;20043;-93
2022/06/08 11:31:38;;;;;;;0.28;0.28;;;;;;;;;;4905957;29;20475;-94
2022/06/08 11:34:13;;;;;;;0.10;0.10;;;;;;;;;;4914134;29;20107;-94
2022/06/08 11:36:40;;;;;;;0.20;0.20;;;;;;;;;;4921059;29;20043;-93
2022/06/08 11:39:25;;;;;;;0.10;0.10;;;;;;;;;;4921163;29;20131;-93
2022/06/08 11:42:22;;;;;;;0.20;0.20;;;;;;;;;;4921364;29;20367;-93
2022/06/08 11:44:50;;;;;;;0.15;0.15;;;;;;;;;;4909181;29;20051;-91
2022/06/08 11:47:19;;;;;;;0.20;0.20;;;;;;;;;;4905395;29;20043;-93
2022/06/08 11:49:45;;;;;;;0.10;0.10;;;;;;;;;;4920758;29;20047;-92
2022/06/08 11:52:26;;;;;;;0.10;0.10;;;;;;;;;;4920817;29;20183;-92
2022/06/08 11:55:15;;;;;;;0.20;0.20;;;;;;;;;;4905599;29;20055;-92
2022/06/08 11:57:43;;;;;;;0.20;0.20;;;;;;;;;;4913377;29;20388;-93
2022/06/08 12:00:35;;;;;;;0.43;0.30;;;;;;;;;;4905112;29;20046;-93
2022/06/08 12:03:03;;;;;;;0.10;0.10;;;;;;;;;;4917205;29;20118;-91
2022/06/08 12:05:31;;;;;;;0.10;0.10;;;;;;;;;;4905161;29;20377;-94
2022/06/08 12:08:01;;;;;;;0.20;0.20;;;;;;;;;;4905235;29;20443;-93
2022/06/08 12:10:29;;;;;;;0.20;0.20;;;;;;;;;;4905002;29;20043;-93
2022/06/08 12:12:55;;;;;;;0.65;0.38;;;;;;;;;;4905016;29;20043;-93
2022/06/08 12:15:27;;;;;;;0.10;0.10;;;;;;;;;;4905191;29;20047;-94
2022/06/08 12:17:53;;;;;;;0.20;0.20;;;;;;;;;;4920608;29;20043;-93
2022/06/08 12:20:36;;;;;;;0.10;0.10;;;;;;;;;;4904896;29;20052;-93
2022/06/08 12:23:04;;;;;;;0.20;0.20;;;;;;;;;;4904734;29;20126;-94
2022/06/08 12:25:30;;;;;;;0.20;0.20;;;;;;;;;;4904683;29;20044;-94
2022/06/08 12:28:20;;;;;;;0.20;0.20;;;;;;;;;;4904638;29;20035;-94
2022/06/08 12:30:47;;;;;;;0.20;0.20;;;;;;;;;;4913323;29;20429;-91
2022/06/08 12:33:16;;;;;;;0.22;0.22;;;;;;;;;;4920075;29;20043;-92
2022/06/08 12:35:53;;;;;;;0.10;0.10;;;;;;;;;;4920748;29;20135;-93
2022/06/08 12:38:29;;;;;;;0.10;0.10;;;;;;;;;;4904936;29;20047;-93
2022/06/08 12:41:09;;;;;;;0.20;0.20;;;;;;;;;;4904212;29;20044;-92
2022/06/08 12:43:40;;;;;;;0.10;0.10;;;;;;;;;;4904491;29;20043;-93
2022/06/08 12:46:24;;;;;;;0.10;0.10;;;;;;;;;;4923013;29;20514;-92
2022/06/08 12:49:09;;;;;;;0.10;0.10;;;;;;;;;;4923522;29;20043;-94
2022/06/08 12:51:37;;;;;;;0.10;0.10;;;;;;;;;;4923065;28;20043;-95
2022/06/08 12:54:10;;;;;;;0.10;0.10;;;;;;;;;;4923229;29;20043;-94
2022/06/08 12:56:36;;;;;;;0.10;0.10;;;;;;;;;;4923631;29;20476;-93
2022/06/08 12:59:02;;;;;;;0.10;0.10;;;;;;;;;;4922584;29;20082;-90
2022/06/08 13:01:29;;;;;;;0.10;0.10;;;;;;;;;;4922224;29;20098;-90
2022/06/08 13:03:55;;;;;;;0.10;0.10;;;;;;;;;;4921895;28;20047;-91
2022/06/08 13:06:21;;;;;;;0.10;0.10;;;;;;;;;;4922212;29;20069;-91
2022/06/08 13:08:49;;;;;;;0.10;0.10;;;;;;;;;;4922167;29;20050;-92
2022/06/08 13:11:16;;;;;;;0.10;0.10;;;;;;;;;;4922203;29;20039;-92
2022/06/08 13:13:43;;;;;;;0.10;0.10;;;;;;;;;;4906140;28;20515;-91
2022/06/08 13:16:22;;;;;;;0.10;0.10;;;;;;;;;;4916998;29;20043;-92
2022/06/08 13:18:49;;;;;;;0.10;0.10;;;;;;;;;;4887486;29;20054;-91
2022/06/08 13:21:15;;;;;;;0.10;0.10;;;;;;;;;;4887398;29;20413;-92
2022/06/08 13:23:42;;;;;;;0.10;0.10;;;;;;;;;;4902743;29;20102;-90
2022/06/08 13:26:12;;;;;;;0.10;0.10;;;;;;;;;;4886763;29;20052;-90
2022/06/08 13:28:38;;;;;;;0.10;0.10;;;;;;;;;;4902562;29;20047;-91
2022/06/08 13:31:09;;;;;;;0.10;0.10;;;;;;;;;;4890965;28;20544;-90
2022/06/08 13:36:32;;;;;;;0.10;0.10;;;;;;;;;;4923835;29;20129;-91
2022/06/08 13:39:11;;;;;;;0.10;0.10;;;;;;;;;;4921463;29;20071;-90
2022/06/08 13:41:38;;;;;;;0.10;0.10;;;;;;;;;;4921446;29;20158;-90
2022/06/08 13:44:06;;;;;;;0.10;0.10;;;;;;;;;;4921022;29;20066;-91
2022/06/08 13:46:33;;;;;;;0.68;0.68;;;;;;;;;;4905352;29;20142;-90
2022/06/08 13:49:02;;;;;;;0.20;0.20;;;;;;;;;;4921326;29;20098;-92
2022/06/08 13:51:28;;;;;;;0.10;0.10;;;;;;;;;;4921193;29;20553;-92
2022/06/08 13:53:54;;;;;;;0.10;0.10;;;;;;;;;;4905249;28;20116;-93
2022/06/08 13:56:21;;;;;;;0.10;0.10;;;;;;;;;;4921246;29;20049;-90
2022/06/08 13:58:47;;;;;;;0.10;0.10;;;;;;;;;;4921246;29;20055;-92
2022/06/08 14:01:19;;;;;;;0.13;0.13;;;;;;;;;;4906193;29;20455;-92
2022/06/08 14:03:45;;;;;;;0.10;0.10;;;;;;;;;;4921763;29;20078;-92
2022/06/08 14:14:26;;;;;;;0.20;0.20;;;;;;;;;;4923874;29;20475;-92
2022/06/08 14:16:53;;;;;;;0.10;0.10;;;;;;;;;;4921200;29;20047;-92
2022/06/08 14:19:26;;;;;;;0.20;0.20;;;;;;;;;;4921226;29;20066;-92
2022/06/08 14:21:53;;;;;;;0.20;0.20;;;;;;;;;;4921690;29;20361;-92
2022/06/08 14:24:40;;;;;;;0.65;0.65;;;;;;;;;;4905772;29;20099;-89
2022/06/08 14:27:07;;;;;;;0.10;0.10;;;;;;;;;;4941463;29;20474;-93
2022/06/08 14:29:36;;;;;;;0.10;0.10;;;;;;;;;;4909854;29;20070;-92
2022/06/08 14:32:02;;;;;;;0.10;0.10;;;;;;;;;;4925343;29;20039;-92
2022/06/08 14:34:34;;;;;;;0.10;0.10;;;;;;;;;;4924968;29;20079;-92
2022/06/08 14:37:02;;;;;;;0.10;0.10;;;;;;;;;;4925189;29;20376;-92
2022/06/08 14:39:29;;;;;;;0.75;0.20;;;;;;;;;;4925439;29;20078;-91
2022/06/08 14:41:55;;;;;;;0.10;0.10;;;;;;;;;;4924700;28;20050;-92
2022/06/08 14:44:21;;;;;;;0.20;0.20;;;;;;;;;;4924807;29;20528;-92
2022/06/08 14:46:50;;;;;;;0.10;0.10;;;;;;;;;;4924125;29;20503;-91
2022/06/08 14:49:18;;;;;;;0.10;0.10;;;;;;;;;;4924930;29;20043;-92
2022/06/08 14:51:47;;;;;;;0.20;0.20;;;;;;;;;;4925498;29;20046;-93
2022/06/08 14:54:17;;;;;;;0.10;0.10;;;;;;;;;;4924504;28;20039;-91
2022/06/08 14:56:46;;;;;;;0.10;0.10;;;;;;;;;;4924348;29;20495;-92
2022/06/08 14:59:23;;;;;;;0.10;0.10;;;;;;;;;;4909225;29;20101;-93
2022/06/08 15:01:51;;;;;;;0.10;0.10;;;;;;;;;;4924213;29;20054;-92
2022/06/08 15:04:18;;;;;;;0.10;0.10;;;;;;;;;;4924308;29;20043;-92
2022/06/08 15:06:44;;;;;;;0.10;0.10;;;;;;;;;;4923941;29;20050;-90
2022/06/08 15:09:10;;;;;;;0.10;0.10;;;;;;;;;;4924199;29;20485;-87
2022/06/08 15:14:22;;;;;;;0.10;0.10;;;;;;;;;;4926370;29;20403;-89
2022/06/08 15:16:48;;;;;;;0.10;0.10;;;;;;;;;;4927258;29;20078;-89
2022/06/08 15:19:25;;;;;;;0.10;0.10;;;;;;;;;;4925530;29;20039;-89
2022/06/08 15:21:51;;;;;;;0.10;0.10;;;;;;;;;;4927482;29;20043;-90
2022/06/08 15:24:18;;;;;;;0.10;0.10;;;;;;;;;;4923895;29;20077;-91
2022/06/08 15:26:44;;;;;;;0.10;0.10;;;;;;;;;;4924996;29;20116;-90
2022/06/08 15:29:14;;;;;;;0.10;0.10;;;;;;;;;;4924213;29;20085;-90
2022/06/08 15:31:40;;;;;;;0.10;0.10;;;;;;;;;;4924056;29;20039;-89